Eugene, Oregon
Current Conditions -  °F | °C
As of 7:54 AM on Sunday 25 Jan 2015 (Local Time) from KEUG Reporting Station
Moderate Fog Moderate Fog  
Wind Chill:   Ceiling: 200
Heat Index:   Visibility: 0.12mi
Dew Point:   Wind: 3mph
Humidity: 96%   Direction: 210°SSW
Pressure: 30.18"   Gusts: NA
Location:  44.05°N, 123.08°W
Report Text: KEUG 251554Z 21003KT 1/8SM R16R/1200V2000FT FG VV002 05/04 A3018 RMK AO2 SLP221 T00500044 $
Loading
Personal Weather Stations






























Interactive Weather Map New forecast layout! Learn more

10-Day Weather Forecast

Advertisements
Track Severe Weather on mobile